createdAt,value
2017-11-21T00:01:04.186Z,0
2017-11-21T00:02:13.285Z,0
2017-11-21T00:03:22.161Z,0
2017-11-21T00:04:31.275Z,0
2017-11-21T00:05:40.101Z,0
2017-11-21T00:06:48.929Z,0
2017-11-21T00:07:57.755Z,0
2017-11-21T00:09:06.583Z,0
2017-11-21T00:10:15.408Z,0
2017-11-21T00:11:24.237Z,0
2017-11-21T00:12:33.065Z,0
2017-11-21T00:13:42.171Z,0
2017-11-21T00:14:51.297Z,0
2017-11-21T00:16:00.126Z,0
2017-11-21T00:17:08.956Z,0
2017-11-21T00:18:17.777Z,0
2017-11-21T00:19:26.602Z,0
2017-11-21T00:20:35.430Z,0
2017-11-21T00:21:44.257Z,0
2017-11-21T00:22:53.084Z,0
2017-11-21T00:24:01.918Z,0
2017-11-21T00:25:11.017Z,0
2017-11-21T00:26:20.094Z,0
2017-11-21T00:27:28.925Z,0
2017-11-21T00:28:38.032Z,0
2017-11-21T00:29:46.855Z,0
2017-11-21T00:30:55.682Z,0
2017-11-21T00:32:04.840Z,0
2017-11-21T00:33:13.941Z,0
2017-11-21T00:34:22.771Z,0
2017-11-21T00:35:31.596Z,0
2017-11-21T00:36:40.432Z,0
2017-11-21T00:37:49.837Z,0
2017-11-21T00:38:58.666Z,0
2017-11-21T00:40:07.491Z,0
2017-11-21T00:41:16.316Z,0
2017-11-21T00:42:25.144Z,0
2017-11-21T00:43:34.270Z,0
2017-11-21T00:44:43.096Z,0
2017-11-21T00:45:52.200Z,0
2017-11-21T00:47:01.033Z,0
2017-11-21T00:48:10.134Z,0
2017-11-21T00:49:19.288Z,0
2017-11-21T00:50:28.113Z,0
2017-11-21T00:51:36.939Z,0
2017-11-21T00:52:45.767Z,0
2017-11-21T00:53:54.594Z,0
2017-11-21T00:55:03.622Z,0
2017-11-21T00:56:12.446Z,0
2017-11-21T00:57:21.274Z,0
2017-11-21T00:58:30.099Z,0
2017-11-21T00:59:38.928Z,0
2017-11-21T01:00:48.054Z,0
2017-11-21T01:01:56.881Z,0
2017-11-21T01:03:05.707Z,0
2017-11-21T01:04:14.537Z,0
2017-11-21T01:05:23.364Z,0
2017-11-21T01:06:32.340Z,0
2017-11-21T01:07:41.168Z,0
2017-11-21T01:08:49.996Z,0
2017-11-21T01:09:58.825Z,0
2017-11-21T01:11:07.653Z,0
2017-11-21T01:12:16.631Z,0
2017-11-21T01:13:25.457Z,0
2017-11-21T01:14:34.295Z,0
2017-11-21T01:15:43.395Z,0
2017-11-21T01:16:52.223Z,0
2017-11-21T01:18:01.147Z,0
2017-11-21T01:19:09.977Z,0
2017-11-21T01:20:18.804Z,0
2017-11-21T01:21:27.631Z,0
2017-11-21T01:22:36.460Z,0
2017-11-21T01:23:45.286Z,0
2017-11-21T01:24:54.119Z,0
2017-11-21T01:26:02.939Z,0
2017-11-21T01:27:11.766Z,0
2017-11-21T01:28:20.594Z,0
2017-11-21T01:29:29.421Z,0
2017-11-21T01:30:38.248Z,0
2017-11-21T01:31:47.081Z,0
2017-11-21T01:32:56.188Z,0
2017-11-21T01:34:05.015Z,0
2017-11-21T01:35:14.425Z,0
2017-11-21T01:36:23.254Z,0
2017-11-21T01:37:32.082Z,0
2017-11-21T01:38:41.186Z,0
2017-11-21T01:39:50.016Z,0
2017-11-21T01:40:58.893Z,0
2017-11-21T01:42:07.719Z,0
2017-11-21T01:43:16.545Z,0
2017-11-21T01:44:25.653Z,0
2017-11-21T01:45:34.481Z,0
2017-11-21T01:46:43.408Z,0
2017-11-21T01:47:52.237Z,0
2017-11-21T01:49:01.059Z,0
2017-11-21T01:50:09.887Z,0
2017-11-21T01:51:18.719Z,0
2017-11-21T01:52:27.741Z,0
2017-11-21T01:53:36.565Z,0
2017-11-21T01:54:45.670Z,0
2017-11-21T01:55:54.498Z,0
2017-11-21T01:57:03.322Z,0
2017-11-21T01:58:12.151Z,0
2017-11-21T01:59:20.981Z,0
2017-11-21T02:00:30.093Z,0
2017-11-21T02:01:38.923Z,0
2017-11-21T02:02:47.750Z,0
2017-11-21T02:03:56.577Z,0
2017-11-21T02:05:05.404Z,0
2017-11-21T02:06:14.232Z,0
2017-11-21T02:07:23.056Z,0
2017-11-21T02:08:32.178Z,0
2017-11-21T02:09:41.283Z,0
2017-11-21T02:10:50.108Z,0
2017-11-21T02:11:58.938Z,0
2017-11-21T02:13:07.765Z,0
2017-11-21T02:14:16.593Z,0
2017-11-21T02:15:25.421Z,0
2017-11-21T02:16:34.249Z,0
2017-11-21T02:17:43.358Z,0
2017-11-21T02:18:52.193Z,0
2017-11-21T02:20:01.015Z,0
2017-11-21T02:21:09.846Z,0
2017-11-21T02:22:18.669Z,0
2017-11-21T02:23:27.495Z,0
2017-11-21T02:24:36.322Z,0
2017-11-21T02:25:45.149Z,0
2017-11-21T02:26:53.973Z,0
2017-11-21T02:28:02.800Z,0
2017-11-21T02:29:11.626Z,0
2017-11-21T02:30:20.455Z,0
2017-11-21T02:31:29.283Z,0
2017-11-21T02:32:38.406Z,0
2017-11-21T02:33:47.240Z,0
2017-11-21T02:34:56.343Z,0
2017-11-21T02:36:05.170Z,0
2017-11-21T02:37:13.999Z,0
2017-11-21T02:38:23.109Z,0
2017-11-21T02:39:31.938Z,0
2017-11-21T02:40:40.764Z,0
2017-11-21T02:41:49.880Z,0
2017-11-21T02:42:58.710Z,0
2017-11-21T02:44:07.972Z,0
2017-11-21T02:45:16.808Z,0
2017-11-21T02:46:25.636Z,0
2017-11-21T02:47:34.461Z,0
2017-11-21T02:48:43.290Z,0
2017-11-21T02:49:52.118Z,0
2017-11-21T02:51:01.259Z,0
2017-11-21T02:52:10.087Z,0
2017-11-21T02:53:19.211Z,0
2017-11-21T02:54:28.319Z,0
2017-11-21T02:55:37.200Z,0
2017-11-21T02:56:46.027Z,0
2017-11-21T02:57:54.854Z,0
2017-11-21T02:59:03.680Z,0
2017-11-21T03:00:12.508Z,0
2017-11-21T03:01:21.432Z,0
2017-11-21T03:02:30.258Z,0
2017-11-21T03:03:39.087Z,0
2017-11-21T03:04:47.918Z,0
2017-11-21T03:05:57.020Z,0
2017-11-21T03:07:05.896Z,0
2017-11-21T03:08:14.734Z,0
2017-11-21T03:09:23.561Z,0
2017-11-21T03:10:32.388Z,0
2017-11-21T03:11:41.216Z,0
2017-11-21T03:12:50.192Z,0
2017-11-21T03:13:59.020Z,0
2017-11-21T03:15:08.124Z,0
2017-11-21T03:16:16.951Z,0
2017-11-21T03:17:25.804Z,0
2017-11-21T03:18:34.805Z,0
2017-11-21T03:19:43.642Z,0
2017-11-21T03:20:52.455Z,0
2017-11-21T03:22:01.285Z,0
2017-11-21T03:23:10.109Z,0
2017-11-21T03:24:19.038Z,0
2017-11-21T03:25:28.418Z,0
2017-11-21T03:26:37.244Z,0
2017-11-21T03:27:46.074Z,0
2017-11-21T03:28:54.897Z,0
2017-11-21T03:30:03.975Z,0
2017-11-21T03:31:12.799Z,0
2017-11-21T03:32:21.626Z,0
2017-11-21T03:33:30.466Z,0
2017-11-21T03:34:39.286Z,0
2017-11-21T03:35:48.109Z,0
2017-11-21T03:36:56.937Z,0
2017-11-21T03:38:05.778Z,0
2017-11-21T03:39:14.591Z,0
2017-11-21T03:40:23.418Z,0
2017-11-21T03:41:32.354Z,0
2017-11-21T03:42:41.175Z,0
2017-11-21T03:43:50.281Z,0
2017-11-21T03:44:59.109Z,0
2017-11-21T03:46:08.213Z,0
2017-11-21T03:47:17.091Z,0
2017-11-21T03:48:26.198Z,0
2017-11-21T03:49:35.305Z,0
2017-11-21T03:50:44.131Z,0
2017-11-21T03:51:52.961Z,0
2017-11-21T03:53:01.938Z,0
2017-11-21T03:54:10.765Z,0
2017-11-21T03:55:19.589Z,0
2017-11-21T03:56:28.418Z,0
2017-11-21T03:57:37.244Z,0
2017-11-21T03:58:46.078Z,0
2017-11-21T03:59:54.898Z,0
2017-11-21T04:01:03.727Z,0
2017-11-21T04:02:12.553Z,0
2017-11-21T04:03:21.381Z,0
2017-11-21T04:04:30.308Z,0
2017-11-21T04:05:39.137Z,0
2017-11-21T04:06:47.965Z,0
2017-11-21T04:07:56.789Z,0
2017-11-21T04:09:05.619Z,0
2017-11-21T04:10:14.497Z,0
2017-11-21T04:11:23.323Z,0
2017-11-21T04:12:32.153Z,0
2017-11-21T04:13:40.982Z,0
2017-11-21T04:14:49.807Z,0
2017-11-21T04:15:58.935Z,0
2017-11-21T04:17:07.762Z,0
2017-11-21T04:18:16.602Z,0
2017-11-21T04:19:25.426Z,0
2017-11-21T04:20:34.582Z,0
2017-11-21T04:21:43.708Z,0
2017-11-21T04:22:52.535Z,0
2017-11-21T04:24:01.362Z,0
2017-11-21T04:25:10.468Z,0
2017-11-21T04:26:19.295Z,0
2017-11-21T04:27:28.173Z,0
2017-11-21T04:28:36.999Z,0
2017-11-21T04:29:45.826Z,0
2017-11-21T04:30:54.655Z,0
2017-11-21T04:32:03.483Z,0
2017-11-21T04:33:12.363Z,0
2017-11-21T04:34:21.190Z,0
2017-11-21T04:35:30.017Z,0
2017-11-21T04:36:38.846Z,0
2017-11-21T04:37:47.675Z,0
2017-11-21T04:38:56.948Z,0
2017-11-21T04:40:05.774Z,0
2017-11-21T04:41:14.603Z,0
2017-11-21T04:42:23.436Z,0
2017-11-21T04:43:32.263Z,0
2017-11-21T04:44:41.190Z,0
2017-11-21T04:45:50.016Z,0
2017-11-21T04:46:58.842Z,0
2017-11-21T04:48:07.671Z,0
2017-11-21T04:49:16.501Z,0
2017-11-21T04:50:25.477Z,0
2017-11-21T04:51:34.307Z,0
2017-11-21T04:52:43.132Z,0
2017-11-21T04:53:52.239Z,0
2017-11-21T04:55:01.342Z,0
2017-11-21T04:56:10.223Z,0
2017-11-21T04:57:19.050Z,0
2017-11-21T04:58:27.878Z,0
2017-11-21T04:59:36.707Z,0
2017-11-21T05:00:45.534Z,0
2017-11-21T05:01:54.416Z,0
2017-11-21T05:03:03.237Z,0
2017-11-21T05:04:12.062Z,0
2017-11-21T05:05:20.891Z,0
2017-11-21T05:06:29.720Z,0
2017-11-21T05:07:38.544Z,0
2017-11-21T05:08:47.373Z,0
2017-11-21T05:09:56.203Z,0
2017-11-21T05:11:05.029Z,0
2017-11-21T05:12:13.855Z,0
2017-11-21T05:13:22.732Z,0
2017-11-21T05:14:31.560Z,0
2017-11-21T05:15:40.397Z,0
2017-11-21T05:16:49.224Z,0
2017-11-21T05:17:58.053Z,0
2017-11-21T05:19:06.980Z,0
2017-11-21T05:20:16.097Z,0
2017-11-21T05:21:24.912Z,0
2017-11-21T05:22:33.739Z,0
2017-11-21T05:23:42.564Z,0
2017-11-21T05:24:51.542Z,0
2017-11-21T05:26:00.369Z,0
2017-11-21T05:27:09.198Z,0
2017-11-21T05:28:18.025Z,0
2017-11-21T05:29:26.853Z,0
2017-11-21T05:30:35.686Z,0
2017-11-21T05:31:44.507Z,0
2017-11-21T05:32:53.613Z,0
2017-11-21T05:34:02.443Z,0
2017-11-21T05:35:11.273Z,0
2017-11-21T05:36:20.154Z,0
2017-11-21T05:37:29.266Z,0
2017-11-21T05:38:38.089Z,0
2017-11-21T05:39:46.916Z,0
2017-11-21T05:40:55.745Z,0
2017-11-21T05:42:04.573Z,0
2017-11-21T05:43:13.405Z,0
2017-11-21T05:44:22.295Z,0
2017-11-21T05:45:31.112Z,0
2017-11-21T05:46:40.217Z,0
2017-11-21T05:47:49.477Z,0
2017-11-21T05:48:58.316Z,0
2017-11-21T05:50:07.137Z,0
2017-11-21T05:51:16.239Z,0
2017-11-21T05:52:25.067Z,0
2017-11-21T05:53:34.533Z,0
2017-11-21T05:54:43.362Z,0
2017-11-21T05:55:52.192Z,0
2017-11-21T05:57:01.302Z,0
2017-11-21T05:58:10.130Z,0
2017-11-21T05:59:19.909Z,0
2017-11-21T06:00:28.738Z,0
2017-11-21T06:01:37.851Z,0
2017-11-21T06:02:46.752Z,0
2017-11-21T06:03:55.617Z,0
2017-11-21T06:05:04.748Z,0
2017-11-21T06:06:13.586Z,0
2017-11-21T06:07:22.696Z,0
2017-11-21T06:08:31.799Z,0
2017-11-21T06:09:40.628Z,0
2017-11-21T06:10:49.756Z,0
2017-11-21T06:11:58.585Z,0
2017-11-21T06:13:07.414Z,0
2017-11-21T06:14:16.518Z,0
2017-11-21T06:15:25.345Z,0
2017-11-21T06:16:34.525Z,0
2017-11-21T06:17:43.353Z,0
2017-11-21T06:18:52.189Z,0
2017-11-21T06:20:01.011Z,0
2017-11-21T06:21:09.842Z,0
2017-11-21T06:22:18.869Z,0
2017-11-21T06:23:27.701Z,0
2017-11-21T06:24:36.819Z,0
2017-11-21T06:25:45.651Z,0
2017-11-21T06:26:54.486Z,0
2017-11-21T06:28:03.594Z,0
2017-11-21T06:29:12.434Z,0
2017-11-21T06:30:21.277Z,0
2017-11-21T06:31:30.383Z,0
2017-11-21T06:32:39.312Z,0
2017-11-21T06:33:48.138Z,0
2017-11-21T06:34:56.968Z,0
2017-11-21T06:36:06.257Z,0
2017-11-21T06:37:15.156Z,0
2017-11-21T06:38:24.019Z,4
2017-11-21T06:39:32.849Z,4
2017-11-21T06:40:41.679Z,4
2017-11-21T06:41:50.509Z,4
2017-11-21T06:42:59.357Z,4
2017-11-21T06:44:08.886Z,4
2017-11-21T06:45:17.980Z,8
2017-11-21T06:46:26.803Z,4
2017-11-21T06:47:35.634Z,8
2017-11-21T06:48:44.467Z,8
2017-11-21T06:49:53.296Z,8
2017-11-21T06:51:02.444Z,12
2017-11-21T06:52:11.270Z,16
2017-11-21T06:53:20.157Z,20
2017-11-21T06:54:28.979Z,20
2017-11-21T06:55:37.808Z,24
2017-11-21T06:56:46.638Z,24
2017-11-21T06:57:55.469Z,28
2017-11-21T06:59:04.447Z,32
2017-11-21T07:00:13.274Z,32
2017-11-21T07:01:22.382Z,36
2017-11-21T07:02:31.220Z,36
2017-11-21T07:03:40.043Z,40
2017-11-21T07:04:48.872Z,40
2017-11-21T07:05:57.701Z,40
2017-11-21T07:07:06.528Z,44
2017-11-21T07:08:15.360Z,44
2017-11-21T07:09:24.189Z,48
2017-11-21T07:10:33.168Z,60
2017-11-21T07:11:41.998Z,64
2017-11-21T07:12:50.825Z,72
2017-11-21T07:13:59.652Z,88
2017-11-21T07:15:08.479Z,96
2017-11-21T07:16:17.460Z,88
2017-11-21T07:17:26.290Z,84
2017-11-21T07:18:35.118Z,88
2017-11-21T07:19:44.231Z,100
2017-11-21T07:20:53.058Z,108
2017-11-21T07:22:01.937Z,116
2017-11-21T07:23:10.764Z,120
2017-11-21T07:24:19.592Z,136
2017-11-21T07:25:28.422Z,132
2017-11-21T07:26:37.528Z,160
2017-11-21T07:27:46.361Z,188
2017-11-21T07:28:55.189Z,184
2017-11-21T07:30:04.016Z,172
2017-11-21T07:31:13.123Z,172
2017-11-21T07:32:21.951Z,180
2017-11-21T07:33:30.780Z,192
2017-11-21T07:34:39.611Z,204
2017-11-21T07:35:48.441Z,212
2017-11-21T07:36:57.270Z,212
2017-11-21T07:38:06.102Z,212
2017-11-21T07:39:15.038Z,200
2017-11-21T07:40:23.856Z,212
2017-11-21T07:41:32.685Z,240
2017-11-21T07:42:41.512Z,248
2017-11-21T07:43:50.340Z,232
2017-11-21T07:44:59.700Z,260
2017-11-21T07:46:08.531Z,296
2017-11-21T07:47:17.366Z,316
2017-11-21T07:48:26.185Z,324
2017-11-21T07:49:35.014Z,296
2017-11-21T07:50:43.993Z,308
2017-11-21T07:51:52.836Z,256
2017-11-21T07:53:01.668Z,220
2017-11-21T07:54:10.495Z,200
2017-11-21T07:55:19.326Z,204
2017-11-21T07:56:28.732Z,224
2017-11-21T07:57:37.844Z,212
2017-11-21T07:58:46.675Z,220
2017-11-21T07:59:55.501Z,248
2017-11-21T08:01:04.347Z,300
2017-11-21T08:02:13.263Z,364
2017-11-21T08:03:22.088Z,392
2017-11-21T08:04:30.918Z,376
2017-11-21T08:05:39.746Z,372
2017-11-21T08:06:48.580Z,420
2017-11-21T08:07:57.556Z,488
2017-11-21T08:09:06.385Z,504
2017-11-21T08:10:15.215Z,456
2017-11-21T08:11:24.043Z,440
2017-11-21T08:12:32.871Z,448
2017-11-21T08:13:41.749Z,452
2017-11-21T08:14:50.859Z,524
2017-11-21T08:15:59.692Z,608
2017-11-21T08:17:09.078Z,644
2017-11-21T08:18:17.905Z,656
2017-11-21T08:19:27.135Z,740
2017-11-21T08:20:35.964Z,744
2017-11-21T08:21:45.075Z,764
2017-11-21T08:22:53.904Z,748
2017-11-21T08:24:02.731Z,780
2017-11-21T08:25:11.936Z,756
2017-11-21T08:26:20.763Z,720
2017-11-21T08:27:29.593Z,744
2017-11-21T08:28:38.701Z,744
2017-11-21T08:29:47.529Z,744
2017-11-21T08:30:56.508Z,760
2017-11-21T08:32:05.337Z,760
2017-11-21T08:33:14.165Z,756
2017-11-21T08:34:22.996Z,744
2017-11-21T08:35:32.111Z,744
2017-11-21T08:36:40.946Z,748
2017-11-21T08:37:49.771Z,772
2017-11-21T08:38:58.599Z,804
2017-11-21T08:40:07.428Z,792
2017-11-21T08:41:16.262Z,772
2017-11-21T08:42:25.398Z,764
2017-11-21T08:43:34.221Z,744
2017-11-21T08:44:43.053Z,728
2017-11-21T08:45:51.885Z,700
2017-11-21T08:47:00.713Z,748
2017-11-21T08:48:09.693Z,740
2017-11-21T08:49:18.521Z,728
2017-11-21T08:50:27.631Z,768
2017-11-21T08:51:36.460Z,804
2017-11-21T08:52:45.565Z,836
2017-11-21T08:53:54.395Z,852
2017-11-21T08:55:03.277Z,832
2017-11-21T08:56:12.119Z,896
2017-11-21T08:57:20.943Z,928
2017-11-21T08:58:29.765Z,956
2017-11-21T08:59:38.645Z,1060
2017-11-21T09:00:47.472Z,1136
2017-11-21T09:01:56.301Z,1152
2017-11-21T09:03:05.411Z,1172
2017-11-21T09:04:14.240Z,1152
2017-11-21T09:05:23.395Z,1132
2017-11-21T09:06:32.226Z,1256
2017-11-21T09:07:41.058Z,1356
2017-11-21T09:08:50.172Z,1388
2017-11-21T09:09:59.001Z,1376
2017-11-21T09:11:07.930Z,1380
2017-11-21T09:12:16.760Z,1420
2017-11-21T09:13:25.586Z,1492
2017-11-21T09:14:34.416Z,1504
2017-11-21T09:15:43.248Z,1432
2017-11-21T09:16:52.274Z,1416
2017-11-21T09:18:01.104Z,1432
2017-11-21T09:19:09.934Z,1372
2017-11-21T09:20:18.763Z,1312
2017-11-21T09:21:27.588Z,1384
2017-11-21T09:22:36.417Z,1424
2017-11-21T09:23:45.247Z,1400
2017-11-21T09:24:54.079Z,1376
2017-11-21T09:26:02.910Z,1344
2017-11-21T09:27:12.015Z,1192
2017-11-21T09:28:20.900Z,1052
2017-11-21T09:29:29.731Z,972
2017-11-21T09:30:38.839Z,1008
2017-11-21T09:31:47.673Z,1240
2017-11-21T09:32:56.497Z,1444
2017-11-21T09:34:05.606Z,1664
2017-11-21T09:35:14.446Z,1740
2017-11-21T09:36:23.265Z,1696
2017-11-21T09:37:32.089Z,1652
2017-11-21T09:38:40.918Z,1688
2017-11-21T09:39:49.849Z,1716
2017-11-21T09:40:58.675Z,1612
2017-11-21T09:42:07.508Z,1584
2017-11-21T09:43:16.345Z,1444
2017-11-21T09:44:25.170Z,1320
2017-11-21T09:45:34.404Z,1228
2017-11-21T09:46:43.234Z,1276
2017-11-21T09:47:52.065Z,1332
2017-11-21T09:49:00.896Z,1412
2017-11-21T09:50:10.005Z,1396
2017-11-21T09:51:18.986Z,1348
2017-11-21T09:52:27.814Z,1332
2017-11-21T09:53:36.643Z,1184
2017-11-21T09:54:45.473Z,1080
2017-11-21T09:55:54.303Z,1040
2017-11-21T09:57:03.182Z,1096
2017-11-21T09:58:12.009Z,1184
2017-11-21T09:59:20.840Z,1216
2017-11-21T10:00:29.671Z,1160
2017-11-21T10:01:38.500Z,1188
2017-11-21T10:02:47.656Z,1244
2017-11-21T10:03:56.483Z,1248
2017-11-21T10:05:05.592Z,1208
2017-11-21T10:06:14.423Z,1188
2017-11-21T10:07:23.253Z,1240
2017-11-21T10:08:32.137Z,1300
2017-11-21T10:09:41.245Z,1336
2017-11-21T10:10:50.362Z,1304
2017-11-21T10:11:59.191Z,1316
2017-11-21T10:13:08.020Z,1372
2017-11-21T10:14:17.052Z,1352
2017-11-21T10:15:25.894Z,1308
2017-11-21T10:16:34.998Z,1236
2017-11-21T10:17:43.829Z,1168
2017-11-21T10:18:52.659Z,1192
2017-11-21T10:20:01.691Z,1180
2017-11-21T10:21:10.517Z,1248
2017-11-21T10:22:19.347Z,1252
2017-11-21T10:23:28.177Z,1228
2017-11-21T10:24:37.007Z,1084
2017-11-21T10:25:45.983Z,948
2017-11-21T10:26:55.098Z,896
2017-11-21T10:28:03.920Z,916
2017-11-21T10:29:13.311Z,912
2017-11-21T10:30:22.143Z,932
2017-11-21T10:31:31.124Z,852
2017-11-21T10:32:39.954Z,828
2017-11-21T10:33:48.783Z,804
2017-11-21T10:34:57.615Z,760
2017-11-21T10:36:06.450Z,764
2017-11-21T10:37:15.626Z,808
2017-11-21T10:38:24.468Z,812
2017-11-21T10:39:33.588Z,828
2017-11-21T10:40:42.409Z,908
2017-11-21T10:41:51.238Z,996
2017-11-21T10:43:00.468Z,1080
2017-11-21T10:44:09.301Z,1116
2017-11-21T10:45:18.131Z,1020
2017-11-21T10:46:26.963Z,1044
2017-11-21T10:47:35.789Z,1080
2017-11-21T10:48:44.621Z,1140
2017-11-21T10:49:53.452Z,1132
2017-11-21T10:51:02.282Z,1160
2017-11-21T10:52:11.108Z,940
2017-11-21T10:53:19.937Z,872
2017-11-21T10:54:28.770Z,956
2017-11-21T10:55:37.876Z,1060
2017-11-21T10:56:46.982Z,1132
2017-11-21T10:57:55.810Z,1164
2017-11-21T10:59:04.636Z,1164
2017-11-21T11:00:13.616Z,1132
2017-11-21T11:01:22.447Z,1268
2017-11-21T11:02:31.276Z,1272
2017-11-21T11:03:40.103Z,1328
2017-11-21T11:04:48.936Z,1300
2017-11-21T11:05:57.822Z,1280
2017-11-21T11:07:06.715Z,1388
2017-11-21T11:08:15.527Z,1388
2017-11-21T11:09:24.356Z,1188
2017-11-21T11:10:33.463Z,1228
2017-11-21T11:11:42.308Z,1336
2017-11-21T11:12:51.144Z,1300
2017-11-21T11:13:59.980Z,1316
2017-11-21T11:15:08.806Z,1340
2017-11-21T11:16:17.636Z,1360
2017-11-21T11:17:26.531Z,1416
2017-11-21T11:18:35.352Z,1336
2017-11-21T11:19:44.180Z,1392
2017-11-21T11:20:53.041Z,1452
2017-11-21T11:22:02.067Z,1476
2017-11-21T11:23:11.765Z,1416
2017-11-21T11:24:20.887Z,1376
2017-11-21T11:25:29.721Z,1432
2017-11-21T11:26:38.555Z,1496
2017-11-21T11:27:47.389Z,1544
2017-11-21T11:28:56.562Z,1512
2017-11-21T11:30:05.397Z,1624
2017-11-21T11:31:14.228Z,1732
2017-11-21T11:32:23.062Z,1552
2017-11-21T11:33:32.167Z,1628
2017-11-21T11:34:41.050Z,1780
2017-11-21T11:35:50.172Z,1928
2017-11-21T11:36:59.401Z,1864
2017-11-21T11:38:08.236Z,1872
2017-11-21T11:39:17.064Z,1836
2017-11-21T11:40:26.046Z,1728
2017-11-21T11:41:35.563Z,1596
2017-11-21T11:42:44.413Z,1552
2017-11-21T11:43:53.242Z,1452
2017-11-21T11:45:02.075Z,1312
2017-11-21T11:46:11.184Z,1228
2017-11-21T11:47:20.041Z,1248
2017-11-21T11:48:29.225Z,1316
2017-11-21T11:49:38.068Z,1384
2017-11-21T11:50:46.898Z,1304
2017-11-21T11:51:55.779Z,1144
2017-11-21T11:53:04.615Z,1004
2017-11-21T11:54:13.498Z,1000
2017-11-21T11:55:22.604Z,908
2017-11-21T11:56:31.672Z,964
2017-11-21T11:57:41.171Z,1084
2017-11-21T11:58:50.550Z,1096
2017-11-21T12:00:00.388Z,1036
2017-11-21T12:01:09.332Z,1228
2017-11-21T12:02:19.697Z,1472
2017-11-21T12:03:28.945Z,1616
2017-11-21T12:04:38.083Z,1380
2017-11-21T12:05:47.249Z,1156
2017-11-21T12:06:56.083Z,1160
2017-11-21T12:08:05.674Z,1336
2017-11-21T12:09:44.823Z,1808
2017-11-21T12:10:55.143Z,2136
2017-11-21T12:12:04.003Z,2080
2017-11-21T12:13:13.137Z,1844
2017-11-21T12:14:22.045Z,1696
2017-11-21T12:15:31.186Z,1660
2017-11-21T12:16:40.297Z,1828
2017-11-21T12:17:49.738Z,1944
2017-11-21T12:18:58.622Z,1836
2017-11-21T12:20:07.692Z,1904
2017-11-21T12:21:16.604Z,1576
2017-11-21T12:22:25.433Z,1568
2017-11-21T12:23:34.530Z,1708
2017-11-21T12:24:43.979Z,1360
2017-11-21T12:25:53.282Z,1596
2017-11-21T12:27:02.711Z,1664
2017-11-21T12:28:12.165Z,1540
2017-11-21T12:29:21.467Z,1624
2017-11-21T12:30:32.483Z,1816
2017-11-21T12:31:42.206Z,2212
2017-11-21T12:32:51.046Z,2152
2017-11-21T12:34:00.640Z,1968
2017-11-21T12:35:10.045Z,1952
2017-11-21T12:36:19.459Z,1952
2017-11-21T12:37:58.059Z,1676
2017-11-21T12:39:07.674Z,1696
2017-11-21T12:40:16.921Z,1632
2017-11-21T12:41:25.835Z,1380
2017-11-21T12:42:34.917Z,1196
2017-11-21T12:43:43.973Z,1268
2017-11-21T12:44:52.880Z,1464
2017-11-21T12:46:02.173Z,1208
2017-11-21T12:47:11.022Z,1032
2017-11-21T12:48:20.248Z,1080
2017-11-21T12:49:29.430Z,1308
2017-11-21T12:50:40.068Z,1324
2017-11-21T12:51:49.156Z,1412
2017-11-21T12:52:58.246Z,1404
2017-11-21T12:54:07.507Z,1352
2017-11-21T12:55:16.615Z,1200
2017-11-21T12:56:25.448Z,1220
2017-11-21T12:57:34.279Z,1120
2017-11-21T12:58:43.112Z,1068
2017-11-21T12:59:52.338Z,1148
2017-11-21T13:01:01.158Z,1080
2017-11-21T13:02:10.270Z,1228
2017-11-21T13:03:19.103Z,1104
2017-11-21T13:04:27.936Z,1000
2017-11-21T13:05:36.767Z,912
2017-11-21T13:06:45.606Z,824
2017-11-21T13:07:54.735Z,764
2017-11-21T13:09:03.566Z,740
2017-11-21T13:10:12.396Z,720
2017-11-21T13:11:21.280Z,744
2017-11-21T13:12:30.118Z,824
2017-11-21T13:13:38.945Z,892
2017-11-21T13:14:47.782Z,936
2017-11-21T13:15:56.904Z,888
2017-11-21T13:17:05.785Z,844
2017-11-21T13:18:14.618Z,864
2017-11-21T13:19:23.453Z,920
2017-11-21T13:20:32.298Z,840
2017-11-21T13:21:41.411Z,776
2017-11-21T13:22:50.494Z,764
2017-11-21T13:23:59.326Z,816
2017-11-21T13:25:08.159Z,856
2017-11-21T13:26:16.989Z,772
2017-11-21T13:27:26.098Z,760
2017-11-21T13:28:35.180Z,760
2017-11-21T13:29:44.012Z,840
2017-11-21T13:30:52.947Z,976
2017-11-21T13:32:01.779Z,1076
2017-11-21T13:33:10.896Z,1040
2017-11-21T13:34:19.780Z,1036
2017-11-21T13:35:28.618Z,1056
2017-11-21T13:36:37.726Z,1080
2017-11-21T13:37:46.559Z,1072
2017-11-21T13:38:55.668Z,1048
2017-11-21T13:40:04.655Z,1036
2017-11-21T13:41:13.507Z,1080
2017-11-21T13:42:22.328Z,1064
2017-11-21T13:43:31.458Z,992
2017-11-21T13:44:40.286Z,944
2017-11-21T13:45:49.117Z,884
2017-11-21T13:46:57.952Z,804
2017-11-21T13:48:06.785Z,704
2017-11-21T13:49:15.619Z,672
2017-11-21T13:50:24.748Z,704
2017-11-21T13:51:33.574Z,680
2017-11-21T13:52:42.407Z,604
2017-11-21T13:53:51.240Z,548
2017-11-21T13:55:00.070Z,512
2017-11-21T13:56:08.902Z,436
2017-11-21T13:57:17.732Z,412
2017-11-21T13:58:26.567Z,392
2017-11-21T13:59:35.675Z,396
2017-11-21T14:00:44.507Z,412
2017-11-21T14:01:53.339Z,392
2017-11-21T14:03:02.230Z,372
2017-11-21T14:04:11.342Z,352
2017-11-21T14:05:20.464Z,348
2017-11-21T14:06:29.296Z,372
2017-11-21T14:07:38.130Z,388
2017-11-21T14:08:47.062Z,380
2017-11-21T14:09:55.894Z,376
2017-11-21T14:11:04.726Z,400
2017-11-21T14:12:13.560Z,372
2017-11-21T14:13:22.389Z,368
2017-11-21T14:14:31.221Z,320
2017-11-21T14:15:40.055Z,292
2017-11-21T14:16:48.889Z,276
2017-11-21T14:17:57.723Z,264
2017-11-21T14:19:06.562Z,256
2017-11-21T14:20:15.744Z,232
2017-11-21T14:21:24.581Z,252
2017-11-21T14:22:33.421Z,300
2017-11-21T14:23:42.244Z,348
2017-11-21T14:24:51.632Z,360
2017-11-21T14:26:00.521Z,368
2017-11-21T14:27:09.349Z,368
2017-11-21T14:28:18.180Z,400
2017-11-21T14:29:27.015Z,388
2017-11-21T14:30:35.845Z,392
2017-11-21T14:31:44.726Z,344
2017-11-21T14:32:53.559Z,320
2017-11-21T14:34:02.393Z,308
2017-11-21T14:35:11.519Z,272
2017-11-21T14:36:20.335Z,256
2017-11-21T14:37:29.225Z,244
2017-11-21T14:38:38.049Z,236
2017-11-21T14:39:46.884Z,216
2017-11-21T14:40:56.003Z,204
2017-11-21T14:42:04.826Z,188
2017-11-21T14:43:13.865Z,184
2017-11-21T14:44:22.697Z,188
2017-11-21T14:45:31.526Z,188
2017-11-21T14:46:40.359Z,176
2017-11-21T14:47:49.193Z,160
2017-11-21T14:48:58.175Z,152
2017-11-21T14:50:07.008Z,136
2017-11-21T14:51:15.842Z,120
2017-11-21T14:52:24.680Z,124
2017-11-21T14:53:33.511Z,124
2017-11-21T14:54:42.345Z,124
2017-11-21T14:55:51.177Z,124
2017-11-21T14:57:00.011Z,120
2017-11-21T14:58:08.845Z,104
2017-11-21T14:59:17.678Z,96
2017-11-21T15:00:26.662Z,88
2017-11-21T15:01:35.495Z,72
2017-11-21T15:02:44.328Z,72
2017-11-21T15:03:53.160Z,64
2017-11-21T15:05:01.995Z,56
2017-11-21T15:06:10.880Z,48
2017-11-21T15:07:19.713Z,44
2017-11-21T15:08:28.544Z,36
2017-11-21T15:09:37.385Z,36
2017-11-21T15:10:46.218Z,28
2017-11-21T15:11:55.353Z,28
2017-11-21T15:13:04.186Z,24
2017-11-21T15:14:13.019Z,24
2017-11-21T15:15:21.853Z,24
2017-11-21T15:16:30.688Z,20
2017-11-21T15:17:39.771Z,20
2017-11-21T15:18:48.603Z,20
2017-11-21T15:19:57.436Z,20
2017-11-21T15:21:06.268Z,12
2017-11-21T15:22:15.098Z,12
2017-11-21T15:23:24.218Z,12
2017-11-21T15:24:33.369Z,8
2017-11-21T15:25:42.190Z,8
2017-11-21T15:26:51.021Z,8
2017-11-21T15:27:59.856Z,8
2017-11-21T15:29:08.690Z,8
2017-11-21T15:30:17.748Z,8
2017-11-21T15:31:26.593Z,4
2017-11-21T15:32:35.426Z,4
2017-11-21T15:33:44.258Z,4
2017-11-21T15:34:53.379Z,8
2017-11-21T15:36:02.213Z,4
2017-11-21T15:37:11.612Z,4
2017-11-21T15:38:20.446Z,4
2017-11-21T15:39:29.279Z,0
2017-11-21T15:40:38.113Z,4
2017-11-21T15:41:46.964Z,4
2017-11-21T15:42:55.848Z,0
2017-11-21T15:44:04.683Z,0
2017-11-21T15:45:13.515Z,0
2017-11-21T15:46:22.349Z,0
2017-11-21T15:47:31.182Z,0
2017-11-21T15:48:40.065Z,0
2017-11-21T15:49:48.899Z,0
2017-11-21T15:50:57.733Z,0
2017-11-21T15:52:07.148Z,0
2017-11-21T15:53:15.978Z,0
2017-11-21T15:54:25.112Z,0
2017-11-21T15:55:34.228Z,0
2017-11-21T15:56:43.059Z,0
2017-11-21T15:57:51.895Z,0
2017-11-21T15:59:01.284Z,0
2017-11-21T16:00:10.217Z,0
2017-11-21T16:01:19.050Z,0
2017-11-21T16:02:27.936Z,0
2017-11-21T16:03:36.769Z,0
2017-11-21T16:04:45.602Z,0
2017-11-21T16:05:54.587Z,0
2017-11-21T16:07:03.438Z,0
2017-11-21T16:08:12.271Z,0
2017-11-21T16:09:21.104Z,0
2017-11-21T16:10:29.938Z,0
2017-11-21T16:11:38.820Z,0
2017-11-21T16:12:47.660Z,0
2017-11-21T16:13:56.487Z,0
2017-11-21T16:15:05.319Z,0
2017-11-21T16:16:14.151Z,0